createdAt,value
2022-08-14T00:01:33.034Z,25.12
2022-08-14T00:06:54.799Z,25.10
2022-08-14T00:12:24.117Z,25.10
2022-08-14T00:17:52.859Z,25.10
2022-08-14T00:23:17.894Z,25.10
2022-08-14T00:28:39.794Z,25.09
2022-08-14T00:34:37.687Z,25.08
2022-08-14T00:39:43.521Z,25.08
2022-08-14T00:45:08.141Z,25.08
2022-08-14T00:50:33.255Z,25.07
2022-08-14T00:55:57.765Z,25.06
2022-08-14T01:01:19.606Z,25.06
2022-08-14T01:06:41.828Z,25.06
2022-08-14T01:12:06.048Z,25.05
2022-08-14T01:17:52.322Z,25.06
2022-08-14T01:23:15.796Z,25.03
2022-08-14T01:28:56.489Z,25.03
2022-08-14T01:35:17.569Z,25.02
2022-08-14T01:40:03.549Z,25.02
2022-08-14T01:45:25.827Z,25.01
2022-08-14T01:50:47.670Z,24.99
2022-08-14T01:56:12.134Z,25.02
2022-08-14T02:01:41.952Z,25.01
2022-08-14T02:07:15.450Z,25.01
2022-08-14T02:12:37.655Z,24.99
2022-08-14T02:18:04.431Z,24.99
2022-08-14T02:23:31.911Z,24.96
2022-08-14T02:29:00.389Z,24.96
2022-08-14T02:34:27.619Z,24.96
2022-08-14T02:39:50.880Z,24.95
2022-08-14T02:45:13.655Z,24.95
2022-08-14T02:50:42.124Z,24.94
2022-08-14T02:56:30.005Z,24.94
2022-08-14T03:01:59.946Z,24.90
2022-08-14T03:07:23.783Z,24.91
2022-08-14T03:12:46.352Z,24.90
2022-08-14T03:18:13.689Z,24.91
2022-08-14T03:23:41.907Z,24.90
2022-08-14T03:29:04.760Z,24.90
2022-08-14T03:34:47.599Z,24.88
2022-08-14T03:40:17.633Z,24.87
2022-08-14T03:45:48.711Z,24.87
2022-08-14T03:51:13.456Z,24.87
2022-08-14T03:56:44.811Z,24.86
2022-08-14T04:02:32.361Z,24.85
2022-08-14T04:08:00.369Z,24.84
2022-08-14T04:13:34.338Z,24.84
2022-08-14T04:18:58.069Z,24.83
2022-08-14T04:24:20.208Z,24.82
2022-08-14T04:29:47.540Z,24.83
2022-08-14T04:35:11.170Z,24.83
2022-08-14T04:40:51.766Z,24.82
2022-08-14T04:46:56.987Z,24.81
2022-08-14T04:52:15.532Z,24.79
2022-08-14T04:57:45.158Z,24.79
2022-08-14T05:03:08.078Z,24.79
2022-08-14T05:08:57.365Z,24.78
2022-08-14T05:14:33.803Z,24.78
2022-08-14T05:21:04.045Z,24.78
2022-08-14T05:25:38.304Z,24.73
2022-08-14T05:31:08.971Z,24.62
2022-08-14T05:36:30.912Z,24.48
2022-08-14T05:41:54.249Z,24.41
2022-08-14T05:47:16.206Z,24.37
2022-08-14T05:52:40.144Z,24.32
2022-08-14T05:58:08.328Z,24.32
2022-08-14T06:03:30.098Z,24.33
2022-08-14T06:08:51.776Z,24.37
2022-08-14T06:14:21.530Z,24.43
2022-08-14T06:19:45.935Z,24.45
2022-08-14T06:25:12.405Z,24.48
2022-08-14T06:30:45.848Z,24.49
2022-08-14T06:36:08.689Z,24.52
2022-08-14T06:41:57.180Z,24.54
2022-08-14T06:47:14.862Z,24.57
2022-08-14T06:52:37.866Z,24.61
2022-08-14T06:57:59.578Z,24.62
2022-08-14T07:03:39.877Z,24.63
2022-08-14T07:09:05.228Z,24.62
2022-08-14T07:14:26.916Z,24.61
2022-08-14T07:19:48.637Z,24.62
2022-08-14T07:25:13.092Z,24.63
2022-08-14T07:30:35.619Z,24.65
2022-08-14T07:36:00.828Z,24.68
2022-08-14T07:41:22.448Z,24.68
2022-08-14T07:46:44.142Z,24.72
2022-08-14T07:52:08.082Z,24.75
2022-08-14T07:57:30.024Z,24.77
2022-08-14T08:02:55.810Z,24.79
2022-08-14T08:08:26.750Z,24.82
2022-08-14T08:13:54.506Z,24.85
2022-08-14T08:19:19.298Z,24.87
2022-08-14T08:24:41.287Z,24.90
2022-08-14T08:30:10.335Z,24.93
2022-08-14T08:35:47.094Z,24.94
2022-08-14T08:41:13.020Z,24.96
2022-08-14T08:46:35.768Z,24.98
2022-08-14T08:52:05.126Z,25.00
2022-08-14T08:57:26.860Z,25.00
2022-08-14T09:03:03.382Z,25.03
2022-08-14T09:08:31.670Z,25.03
2022-08-14T09:13:54.835Z,25.04
2022-08-14T09:19:16.924Z,25.03
2022-08-14T09:24:44.016Z,25.03
2022-08-14T09:30:31.542Z,25.03
2022-08-14T09:36:12.071Z,25.05
2022-08-14T09:42:17.742Z,25.06
2022-08-14T09:47:49.074Z,25.06
2022-08-14T09:53:18.653Z,25.04
2022-08-14T09:58:45.605Z,25.07
2022-08-14T10:04:33.160Z,25.07
2022-08-14T10:09:59.542Z,25.05
2022-08-14T10:15:27.805Z,25.05
2022-08-14T10:20:58.225Z,25.07
2022-08-14T10:26:22.904Z,25.06
2022-08-14T10:31:57.527Z,25.08
2022-08-14T10:37:19.596Z,25.08
2022-08-14T10:42:46.998Z,25.09
2022-08-14T10:48:24.270Z,25.11
2022-08-14T10:53:58.713Z,25.13
2022-08-14T10:59:22.433Z,25.14
2022-08-14T11:04:44.260Z,25.15
2022-08-14T11:10:09.996Z,25.17
2022-08-14T11:15:33.197Z,25.18
2022-08-14T11:20:56.939Z,25.20
2022-08-14T11:26:19.272Z,25.21
2022-08-14T11:31:41.675Z,25.22
2022-08-14T11:37:20.813Z,25.24
2022-08-14T11:42:59.225Z,25.23
2022-08-14T11:49:04.360Z,25.26
2022-08-14T11:54:08.427Z,25.24
2022-08-14T11:59:33.529Z,25.25
2022-08-14T12:04:55.692Z,25.28
2022-08-14T12:10:37.001Z,25.28
2022-08-14T12:16:20.512Z,25.28
2022-08-14T12:21:51.767Z,25.29
2022-08-14T12:27:17.005Z,25.28
2022-08-14T12:32:44.897Z,25.28
2022-08-14T12:38:07.373Z,25.29
2022-08-14T12:43:29.553Z,25.28
2022-08-14T12:48:52.291Z,25.30
2022-08-14T12:54:27.700Z,25.31
2022-08-14T12:59:51.415Z,25.31
2022-08-14T13:05:15.338Z,25.31
2022-08-14T13:10:51.639Z,25.31
2022-08-14T13:16:20.899Z,25.33
2022-08-14T13:22:09.671Z,25.34
2022-08-14T13:27:38.639Z,25.34
2022-08-14T13:33:04.320Z,25.34
2022-08-14T13:38:27.921Z,25.37
2022-08-14T13:43:59.616Z,25.41
2022-08-14T13:49:24.032Z,25.45
2022-08-14T13:54:55.297Z,25.49
2022-08-14T14:00:32.758Z,25.52
2022-08-14T14:05:58.126Z,25.56
2022-08-14T14:11:24.437Z,25.59
2022-08-14T14:16:47.246Z,25.62
2022-08-14T14:22:09.936Z,25.64
2022-08-14T14:27:41.711Z,25.66
2022-08-14T14:33:14.368Z,25.67
2022-08-14T14:38:52.573Z,25.69
2022-08-14T14:44:16.471Z,25.68
2022-08-14T14:49:51.105Z,25.69
2022-08-14T14:55:19.703Z,25.67
2022-08-14T15:00:42.062Z,25.64
2022-08-14T15:06:05.081Z,25.64
2022-08-14T15:11:30.514Z,25.62
2022-08-14T15:16:53.839Z,25.60
2022-08-14T15:22:21.153Z,25.59
2022-08-14T15:27:50.217Z,25.57
2022-08-14T15:33:13.624Z,25.52
2022-08-14T15:38:42.679Z,25.57
2022-08-14T15:44:04.854Z,25.55
2022-08-14T15:49:40.880Z,25.54
2022-08-14T15:55:07.506Z,25.55
2022-08-14T16:00:56.329Z,25.54
2022-08-14T16:06:20.307Z,25.51
2022-08-14T16:11:50.682Z,25.50
2022-08-14T16:17:15.797Z,25.50
2022-08-14T16:22:58.838Z,25.48
2022-08-14T16:28:27.421Z,25.49
2022-08-14T16:33:58.864Z,25.49
2022-08-14T16:39:23.442Z,25.47
2022-08-14T16:44:46.562Z,25.46
2022-08-14T16:50:11.413Z,25.45
2022-08-14T16:55:33.392Z,25.44
2022-08-14T17:01:24.829Z,25.44
2022-08-14T17:06:50.011Z,25.42
2022-08-14T17:12:33.526Z,25.41
2022-08-14T17:17:58.343Z,25.39
2022-08-14T17:23:21.333Z,25.38
2022-08-14T17:29:24.076Z,25.39
2022-08-14T17:34:53.747Z,25.36
2022-08-14T17:40:22.913Z,25.37
2022-08-14T17:45:47.683Z,25.37
2022-08-14T17:51:12.265Z,25.36
2022-08-14T17:56:34.314Z,25.36
2022-08-14T18:02:00.708Z,25.36
2022-08-14T18:07:59.320Z,25.35
2022-08-14T18:13:10.536Z,25.34
2022-08-14T18:18:32.679Z,25.34
2022-08-14T18:23:54.397Z,25.33
2022-08-14T18:29:17.447Z,25.33
2022-08-14T18:34:48.508Z,25.33
2022-08-14T18:40:18.679Z,25.34
2022-08-14T18:46:01.355Z,25.34
2022-08-14T18:51:45.175Z,25.32
2022-08-14T18:57:09.749Z,25.30
2022-08-14T19:02:31.525Z,25.34
2022-08-14T19:08:17.914Z,25.37
2022-08-14T19:13:47.998Z,25.38
2022-08-14T19:19:12.540Z,25.39
2022-08-14T19:24:34.253Z,25.38
2022-08-14T19:30:20.147Z,25.38
2022-08-14T19:35:55.189Z,25.36
2022-08-14T19:41:34.006Z,25.36
2022-08-14T19:47:01.466Z,25.40
2022-08-14T19:52:29.805Z,25.41
2022-08-14T19:57:58.616Z,25.40
2022-08-14T20:03:24.016Z,25.40
2022-08-14T20:10:58.841Z,25.41
2022-08-14T20:14:31.361Z,25.39
2022-08-14T20:19:53.347Z,25.38
2022-08-14T20:25:18.424Z,25.38
2022-08-14T20:30:41.460Z,25.38
2022-08-14T20:36:15.488Z,25.41
2022-08-14T20:41:51.122Z,25.36
2022-08-14T20:47:19.085Z,25.35
2022-08-14T20:52:44.553Z,25.30
2022-08-14T20:58:43.757Z,25.30
2022-08-14T21:04:30.297Z,25.30
2022-08-14T21:10:35.344Z,25.31
2022-08-14T21:15:57.859Z,25.29
2022-08-14T21:21:25.262Z,25.31
2022-08-14T21:27:19.776Z,25.31
2022-08-14T21:32:47.374Z,25.30
2022-08-14T21:38:18.349Z,25.31
2022-08-14T21:43:40.335Z,25.31
2022-08-14T21:49:06.633Z,25.31
2022-08-14T21:54:50.031Z,25.31
2022-08-14T22:00:35.856Z,25.31
2022-08-14T22:05:59.008Z,25.29
2022-08-14T22:11:21.113Z,25.27
2022-08-14T22:17:01.585Z,25.28
2022-08-14T22:22:30.093Z,25.29
2022-08-14T22:27:56.369Z,25.28
2022-08-14T22:33:19.979Z,25.28
2022-08-14T22:38:49.600Z,25.26
2022-08-14T22:44:15.706Z,25.28
2022-08-14T22:50:30.120Z,25.25
2022-08-14T22:55:20.763Z,25.25
2022-08-14T23:00:45.171Z,25.24
2022-08-14T23:07:02.091Z,25.24
2022-08-14T23:11:49.340Z,25.26
2022-08-14T23:17:12.198Z,25.24
2022-08-14T23:22:34.001Z,25.25
2022-08-14T23:28:04.744Z,25.25
2022-08-14T23:33:27.432Z,25.23
2022-08-14T23:38:49.595Z,25.24
2022-08-14T23:44:15.559Z,25.22
2022-08-14T23:49:59.928Z,25.22
2022-08-14T23:55:19.904Z,25.20
